Time;durP1;ratioP1;P1;durP2;ratioP2;P2;SDS_P1;SDS_P2;PMS_P1;PMS_P2;Temp;Humidity;BMP_temperature;BMP_pressure;BME280_temperature;BME280_humidity;BME280_pressure;Samples;Min_cycle;Max_cycle;Signal;HPM_P1;HPM_P2
2022/05/13 00:02:04;;;;;;;;;;;27.70;34.80;;;;;;5114754;28;979;-46
2022/05/13 00:04:31;;;;;;;;;;;27.70;34.80;;;;;;5115776;28;916;-46
2022/05/13 00:07:00;;;;;;;;;;;27.70;34.90;;;;;;5115800;28;1004;-45
2022/05/13 00:09:56;;;;;;;;;;;27.70;35.00;;;;;;5116089;28;1016;-46
2022/05/13 00:12:14;;;;;;;;;;;27.70;35.00;;;;;;5119080;28;1898;-48
2022/05/13 00:14:41;;;;;;;;;;;27.60;35.10;;;;;;5118975;28;984;-46
2022/05/13 00:17:09;;;;;;;;;;;27.60;35.10;;;;;;5120629;28;1004;-47
2022/05/13 00:19:36;;;;;;;;;;;27.60;35.20;;;;;;5119266;28;1039;-46
2022/05/13 00:22:04;;;;;;;;;;;27.60;35.20;;;;;;5118940;28;1174;-46
2022/05/13 00:24:31;;;;;;;;;;;27.70;35.20;;;;;;5119429;28;959;-46
2022/05/13 00:26:58;;;;;;;;;;;27.70;34.90;;;;;;5119140;28;1152;-46
2022/05/13 00:29:25;;;;;;;;;;;27.80;34.90;;;;;;5119338;28;944;-45
2022/05/13 00:31:51;;;;;;;;;;;27.90;34.90;;;;;;5118429;28;1902;-46
2022/05/13 00:34:19;;;;;;;;;;;27.80;34.80;;;;;;5119494;28;992;-46
2022/05/13 00:36:47;;;;;;;;;;;27.80;35.00;;;;;;5119691;28;996;-47
2022/05/13 00:39:15;;;;;;;;;;;27.70;35.00;;;;;;5120147;28;963;-47
2022/05/13 00:41:42;;;;;;;;;;;27.80;35.10;;;;;;5120699;28;1030;-46
2022/05/13 00:44:09;;;;;;;;;;;27.90;34.90;;;;;;5120804;28;933;-46
2022/05/13 00:46:35;;;;;;;;;;;27.80;35.10;;;;;;5120581;28;1003;-46
2022/05/13 00:49:05;;;;;;;;;;;27.80;35.00;;;;;;5119986;28;838;-46
2022/05/13 00:51:33;;;;;;;;;;;27.80;35.10;;;;;;5120976;28;1909;-46
2022/05/13 00:54:01;;;;;;;;;;;27.80;35.00;;;;;;5119669;28;976;-46
2022/05/13 00:56:30;;;;;;;;;;;27.80;35.00;;;;;;5119283;28;1019;-46
2022/05/13 00:58:58;;;;;;;;;;;27.80;35.00;;;;;;5119569;28;1209;-46
2022/05/13 01:01:25;;;;;;;;;;;27.80;35.00;;;;;;5119728;28;1555;-46
2022/05/13 01:03:53;;;;;;;;;;;27.70;35.20;;;;;;5118913;28;1061;-46
2022/05/13 01:06:23;;;;;;;;;;;27.70;35.30;;;;;;5137487;28;901;-33
2022/05/13 01:08:57;;;;;;;;;;;27.70;35.20;;;;;;5141028;28;1654;-33
2022/05/13 01:11:27;;;;;;;;;;;27.70;35.10;;;;;;5140554;27;1887;-31
2022/05/13 01:14:01;;;;;;;;;;;27.70;35.30;;;;;;5140669;28;1507;-34
2022/05/13 01:18:04;;;;;;;;;;;27.70;35.30;;;;;;5140317;28;979;-33
2022/05/13 01:19:18;;;;;;;;;;;27.70;35.50;;;;;;5140623;28;1034;-32
2022/05/13 01:21:50;;;;;;;;;;;27.70;35.20;;;;;;5140018;28;1271;-34
2022/05/13 01:24:24;;;;;;;;;;;27.80;35.30;;;;;;5140699;28;1662;-32
2022/05/13 01:26:51;;;;;;;;;;;27.80;35.10;;;;;;5140614;28;983;-34
2022/05/13 01:29:19;;;;;;;;;;;27.80;35.10;;;;;;5140804;28;762;-33
2022/05/13 01:31:47;;;;;;;;;;;27.70;35.30;;;;;;5140404;28;1945;-32
2022/05/13 01:34:15;;;;;;;;;;;27.70;35.20;;;;;;5140448;28;884;-31
2022/05/13 01:36:45;;;;;;;;;;;27.60;35.40;;;;;;5140382;28;1049;-35
2022/05/13 01:39:17;;;;;;;;;;;27.70;35.20;;;;;;5140348;28;1457;-33
2022/05/13 01:41:45;;;;;;;;;;;27.80;35.30;;;;;;5140264;28;1116;-32
2022/05/13 01:44:14;;;;;;;;;;;27.80;35.30;;;;;;5140420;28;928;-33
2022/05/13 01:46:46;;;;;;;;;;;27.90;35.20;;;;;;5140393;28;1077;-32
2022/05/13 01:49:16;;;;;;;;;;;27.90;34.90;;;;;;5139883;28;1048;-32
2022/05/13 01:51:45;;;;;;;;;;;27.90;34.90;;;;;;5139587;28;1959;-31
2022/05/13 01:54:16;;;;;;;;;;;27.90;35.00;;;;;;5140185;28;1125;-31
2022/05/13 01:56:47;;;;;;;;;;;27.80;35.30;;;;;;5139853;28;1883;-32
2022/05/13 01:59:18;;;;;;;;;;;27.70;35.30;;;;;;5099222;28;995;-32
2022/05/13 02:01:51;;;;;;;;;;;27.70;35.30;;;;;;5099094;28;1124;-34
2022/05/13 02:04:19;;;;;;;;;;;27.60;35.70;;;;;;5098931;28;1523;-37
2022/05/13 02:06:47;;;;;;;;;;;27.60;35.60;;;;;;5099043;28;948;-32
2022/05/13 02:09:16;;;;;;;;;;;27.60;35.50;;;;;;5098948;28;901;-36
2022/05/13 02:11:46;;;;;;;;;;;27.60;35.70;;;;;;5098792;28;1944;-32
2022/05/13 02:14:13;;;;;;;;;;;27.70;35.50;;;;;;5099032;28;1184;-32
2022/05/13 02:16:41;;;;;;;;;;;27.70;35.50;;;;;;5098810;28;1603;-31
2022/05/13 02:19:11;;;;;;;;;;;27.60;35.50;;;;;;5098662;28;1544;-34
2022/05/13 02:21:40;;;;;;;;;;;27.60;35.60;;;;;;5098906;28;960;-31
2022/05/13 02:24:08;;;;;;;;;;;27.60;35.60;;;;;;5098567;28;1302;-32
2022/05/13 02:26:40;;;;;;;;;;;27.60;35.70;;;;;;5098633;28;1315;-32
2022/05/13 02:29:14;;;;;;;;;;;27.70;35.60;;;;;;5098598;28;1039;-33
2022/05/13 02:31:42;;;;;;;;;;;27.70;35.80;;;;;;5098480;28;2011;-34
2022/05/13 02:34:14;;;;;;;;;;;27.60;35.70;;;;;;5097572;28;960;-30
2022/05/13 02:36:41;;;;;;;;;;;27.70;35.80;;;;;;5093754;28;933;-44
2022/05/13 02:39:07;;;;;;;;;;;27.60;35.70;;;;;;5077171;28;976;-45
2022/05/13 02:41:36;;;;;;;;;;;27.70;35.80;;;;;;5077108;28;1022;-44
2022/05/13 02:44:02;;;;;;;;;;;27.60;35.90;;;;;;5078001;28;1022;-47
2022/05/13 02:46:32;;;;;;;;;;;27.60;35.90;;;;;;5078367;28;860;-45
2022/05/13 02:48:59;;;;;;;;;;;27.60;35.90;;;;;;5077314;28;1133;-45
2022/05/13 02:51:26;;;;;;;;;;;27.60;35.90;;;;;;5077025;28;1902;-43
2022/05/13 02:53:53;;;;;;;;;;;27.60;35.90;;;;;;5077404;28;925;-45
2022/05/13 02:56:20;;;;;;;;;;;27.60;35.90;;;;;;5077585;28;1005;-45
2022/05/13 02:58:48;;;;;;;;;;;27.60;35.90;;;;;;5111308;28;1058;-44
2022/05/13 03:01:17;;;;;;;;;;;27.60;36.10;;;;;;5117634;28;924;-44
2022/05/13 03:03:45;;;;;;;;;;;27.60;35.90;;;;;;5118168;28;1048;-44
2022/05/13 03:06:12;;;;;;;;;;;27.60;35.90;;;;;;5116552;28;1019;-44
2022/05/13 03:08:39;;;;;;;;;;;27.60;36.00;;;;;;5117687;28;1004;-46
2022/05/13 03:11:07;;;;;;;;;;;27.60;35.90;;;;;;5116507;28;932;-45
2022/05/13 03:13:34;;;;;;;;;;;27.60;35.90;;;;;;5118423;28;1902;-42
2022/05/13 03:16:05;;;;;;;;;;;27.60;35.90;;;;;;5118106;28;1005;-42
2022/05/13 03:18:32;;;;;;;;;;;27.60;35.90;;;;;;5116731;28;1024;-43
2022/05/13 03:20:59;;;;;;;;;;;27.60;35.90;;;;;;5116450;28;944;-40
2022/05/13 03:23:26;;;;;;;;;;;27.60;35.90;;;;;;5117017;28;1042;-42
2022/05/13 03:25:53;;;;;;;;;;;27.60;35.90;;;;;;5116275;28;1023;-42
2022/05/13 03:28:20;;;;;;;;;;;27.60;35.90;;;;;;5116549;28;1028;-44
2022/05/13 03:30:49;;;;;;;;;;;27.60;35.90;;;;;;5115577;28;1534;-43
2022/05/13 03:33:17;;;;;;;;;;;27.60;35.90;;;;;;5116092;28;1906;-41
2022/05/13 03:35:44;;;;;;;;;;;27.70;36.00;;;;;;5116005;28;944;-41
2022/05/13 03:38:11;;;;;;;;;;;27.60;35.90;;;;;;5117077;28;1039;-43
2022/05/13 03:40:38;;;;;;;;;;;27.60;35.90;;;;;;5116771;28;999;-42
2022/05/13 03:43:05;;;;;;;;;;;27.60;35.90;;;;;;5116834;28;1004;-43
2022/05/13 03:45:34;;;;;;;;;;;27.60;35.90;;;;;;5120974;28;968;-41
2022/05/13 03:48:01;;;;;;;;;;;27.60;36.00;;;;;;5121185;28;902;-43
2022/05/13 03:50:29;;;;;;;;;;;27.60;35.90;;;;;;5121766;28;1004;-43
2022/05/13 03:52:55;;;;;;;;;;;27.60;36.00;;;;;;5121221;28;1902;-40
2022/05/13 03:55:23;;;;;;;;;;;27.70;35.90;;;;;;5121245;28;937;-43
2022/05/13 03:57:49;;;;;;;;;;;27.60;36.00;;;;;;5120467;28;1201;-43
2022/05/13 04:00:17;;;;;;;;;;;27.60;36.00;;;;;;5120109;28;1070;-43
2022/05/13 04:02:43;;;;;;;;;;;27.60;36.00;;;;;;5120015;28;1016;-44
2022/05/13 04:10:41;;;;;;;;;;;27.60;36.00;;;;;;5120089;28;607;-43
2022/05/13 04:16:07;;;;;;;;;;;27.60;36.00;;;;;;5072224;28;1101;-41
2022/05/13 04:18:35;;;;;;;;;;;27.60;36.10;;;;;;5120192;28;1020;-43
2022/05/13 04:21:04;;;;;;;;;;;27.60;36.00;;;;;;5120016;28;915;-43
2022/05/13 04:23:33;;;;;;;;;;;27.60;36.00;;;;;;5119704;28;972;-43
2022/05/13 04:26:00;;;;;;;;;;;27.60;36.00;;;;;;5118452;28;1006;-40
2022/05/13 04:28:28;;;;;;;;;;;27.60;36.10;;;;;;5119153;28;971;-43
2022/05/13 04:30:54;;;;;;;;;;;27.60;36.20;;;;;;5118981;28;869;-43
2022/05/13 04:33:21;;;;;;;;;;;27.60;36.10;;;;;;5117641;28;1906;-43
2022/05/13 04:35:48;;;;;;;;;;;27.60;36.00;;;;;;5118759;28;936;-42
2022/05/13 04:38:14;;;;;;;;;;;27.60;36.10;;;;;;5118222;28;992;-40
2022/05/13 04:40:43;;;;;;;;;;;27.60;36.10;;;;;;5118281;28;1047;-43
2022/05/13 04:43:08;;;;;;;;;;;27.60;36.20;;;;;;5117679;28;921;-41
2022/05/13 04:45:36;;;;;;;;;;;27.60;36.10;;;;;;5117735;28;2048;-41
2022/05/13 04:48:19;;;;;;;;;;;27.60;36.10;;;;;;5117841;28;1028;-40
2022/05/13 04:50:49;;;;;;;;;;;27.60;36.10;;;;;;5118620;28;1015;-41
2022/05/13 04:53:18;;;;;;;;;;;27.60;36.10;;;;;;5117443;28;1905;-43
2022/05/13 04:55:46;;;;;;;;;;;27.60;36.10;;;;;;5117632;28;980;-40
2022/05/13 04:58:14;;;;;;;;;;;27.60;36.10;;;;;;5117632;28;1129;-41
2022/05/13 05:00:40;;;;;;;;;;;27.60;36.10;;;;;;5116985;28;952;-41
2022/05/13 05:03:07;;;;;;;;;;;27.60;36.20;;;;;;5114532;28;1048;-43
2022/05/13 05:05:34;;;;;;;;;;;27.60;36.10;;;;;;5114833;28;996;-43
2022/05/13 05:08:01;;;;;;;;;;;27.60;36.10;;;;;;5114890;28;1035;-42
2022/05/13 05:10:28;;;;;;;;;;;27.60;36.20;;;;;;5114335;28;1034;-41
2022/05/13 05:12:57;;;;;;;;;;;27.60;36.20;;;;;;5113965;28;1902;-42
2022/05/13 05:15:24;;;;;;;;;;;27.60;36.10;;;;;;5114080;28;872;-44
2022/05/13 05:17:51;;;;;;;;;;;27.60;36.20;;;;;;5113858;28;900;-43
2022/05/13 05:20:19;;;;;;;;;;;27.60;36.30;;;;;;5112927;28;901;-43
2022/05/13 05:22:46;;;;;;;;;;;27.50;36.20;;;;;;5113020;28;893;-42
2022/05/13 05:25:14;;;;;;;;;;;27.60;36.40;;;;;;5113286;28;945;-44
2022/05/13 05:27:41;;;;;;;;;;;27.50;36.40;;;;;;5113715;28;1005;-44
2022/05/13 05:30:11;;;;;;;;;;;27.50;36.30;;;;;;5112784;28;1019;-43
2022/05/13 05:32:38;;;;;;;;;;;27.50;36.40;;;;;;5114586;28;1909;-43
2022/05/13 05:35:05;;;;;;;;;;;27.50;36.20;;;;;;5122742;27;1301;-45
2022/05/13 05:37:33;;;;;;;;;;;27.60;36.00;;;;;;5135570;27;1842;-44
2022/05/13 05:39:59;;;;;;;;;;;27.70;36.00;;;;;;5136676;27;932;-45
2022/05/13 05:42:26;;;;;;;;;;;27.70;36.10;;;;;;5136961;27;892;-43
2022/05/13 05:44:53;;;;;;;;;;;27.70;35.90;;;;;;5137608;27;883;-43
2022/05/13 05:47:22;;;;;;;;;;;27.90;35.80;;;;;;5136642;27;992;-44
2022/05/13 05:49:49;;;;;;;;;;;27.80;36.00;;;;;;5136732;27;995;-43
2022/05/13 05:52:16;;;;;;;;;;;27.90;35.90;;;;;;5136752;27;1898;-35
2022/05/13 05:57:27;;;;;;;;;;;27.80;35.70;;;;;;5138161;27;1113;-38
2022/05/13 05:59:54;;;;;;;;;;;27.70;36.00;;;;;;5136604;27;915;-37
2022/05/13 06:02:22;;;;;;;;;;;27.70;36.30;;;;;;5135334;27;964;-38
2022/05/13 06:04:49;;;;;;;;;;;27.70;36.20;;;;;;5136694;27;940;-38
2022/05/13 06:07:17;;;;;;;;;;;27.70;36.50;;;;;;5136456;27;984;-37
2022/05/13 06:09:44;;;;;;;;;;;27.70;36.50;;;;;;5136028;27;991;-38
2022/05/13 06:12:12;;;;;;;;;;;27.70;36.70;;;;;;5134911;27;925;-37
2022/05/13 06:14:39;;;;;;;;;;;27.70;36.50;;;;;;5134993;27;1982;-34
2022/05/13 06:17:06;;;;;;;;;;;27.70;36.90;;;;;;5135803;27;1023;-34
2022/05/13 06:19:34;;;;;;;;;;;27.70;36.40;;;;;;5135942;27;856;-34
2022/05/13 06:22:01;;;;;;;;;;;27.70;36.60;;;;;;5136753;27;1004;-34
2022/05/13 06:24:27;;;;;;;;;;;27.70;36.70;;;;;;5135034;27;999;-34
2022/05/13 06:26:54;;;;;;;;;;;27.60;36.70;;;;;;5135061;27;1008;-34
2022/05/13 06:29:22;;;;;;;;;;;27.60;36.90;;;;;;5134958;27;1028;-34
2022/05/13 06:31:49;;;;;;;;;;;27.50;36.90;;;;;;5135102;27;1012;-34
2022/05/13 06:34:17;;;;;;;;;;;27.50;38.10;;;;;;5135366;27;1910;-34
2022/05/13 06:36:45;;;;;;;;;;;27.50;37.10;;;;;;5135940;27;891;-34
2022/05/13 06:39:13;;;;;;;;;;;27.50;37.00;;;;;;5135696;27;995;-34
2022/05/13 06:41:40;;;;;;;;;;;27.50;37.10;;;;;;5135873;27;1014;-34
2022/05/13 06:44:07;;;;;;;;;;;27.50;37.10;;;;;;5136583;27;1004;-34
2022/05/13 06:46:35;;;;;;;;;;;27.50;37.00;;;;;;5136139;27;1004;-34
2022/05/13 06:49:04;;;;;;;;;;;27.50;37.00;;;;;;5137276;27;1052;-34
2022/05/13 06:51:31;;;;;;;;;;;27.50;36.90;;;;;;5136381;27;984;-34
2022/05/13 06:54:03;;;;;;;;;;;27.50;36.90;;;;;;5134946;27;1905;-34
2022/05/13 06:56:31;;;;;;;;;;;27.50;36.90;;;;;;5134834;27;992;-34
2022/05/13 06:58:58;;;;;;;;;;;27.50;36.90;;;;;;5135476;27;1058;-34
2022/05/13 07:01:25;;;;;;;;;;;27.50;36.80;;;;;;5134806;27;985;-34
2022/05/13 07:03:52;;;;;;;;;;;27.50;36.80;;;;;;5135253;27;1047;-34
2022/05/13 07:06:19;;;;;;;;;;;27.50;36.80;;;;;;5137618;27;1409;-34
2022/05/13 07:08:46;;;;;;;;;;;27.50;36.80;;;;;;5137681;27;947;-34
2022/05/13 07:11:14;;;;;;;;;;;27.50;37.00;;;;;;5134837;27;940;-34
2022/05/13 07:13:41;;;;;;;;;;;27.50;36.90;;;;;;5135224;27;1978;-34
2022/05/13 07:16:08;;;;;;;;;;;27.50;36.90;;;;;;5134443;27;990;-34
2022/05/13 07:18:36;;;;;;;;;;;27.60;37.00;;;;;;5135026;27;1018;-34
2022/05/13 07:21:03;;;;;;;;;;;27.50;36.80;;;;;;5134006;27;964;-34
2022/05/13 07:23:30;;;;;;;;;;;27.50;36.90;;;;;;5134859;27;967;-34
2022/05/13 07:25:57;;;;;;;;;;;27.50;36.90;;;;;;5134433;27;1129;-34
2022/05/13 07:28:26;;;;;;;;;;;27.50;36.90;;;;;;5134963;27;1027;-34
2022/05/13 07:30:53;;;;;;;;;;;27.50;37.00;;;;;;5135036;27;971;-34
2022/05/13 07:33:21;;;;;;;;;;;27.50;36.80;;;;;;5135342;27;1976;-34
2022/05/13 07:35:48;;;;;;;;;;;27.50;36.90;;;;;;5134918;27;1022;-34
2022/05/13 07:38:15;;;;;;;;;;;27.50;36.90;;;;;;5136698;27;1182;-34
2022/05/13 07:43:27;;;;;;;;;;;27.50;37.00;;;;;;5135939;27;937;-46
2022/05/13 07:45:54;;;;;;;;;;;27.50;36.90;;;;;;5104278;27;1782;-46
2022/05/13 07:48:21;;;;;;;;;;;27.50;36.90;;;;;;5094459;28;1052;-46
2022/05/13 07:50:47;;;;;;;;;;;27.50;36.90;;;;;;5095266;28;992;-46
2022/05/13 07:53:15;;;;;;;;;;;27.50;37.00;;;;;;5097667;28;1894;-47
2022/05/13 07:55:41;;;;;;;;;;;27.50;36.90;;;;;;5101614;28;1135;-47
2022/05/13 07:58:08;;;;;;;;;;;27.50;36.90;;;;;;5116746;28;1161;-41
2022/05/13 08:00:38;;;;;;;;;;;27.50;38.00;;;;;;5116462;28;1209;-43
2022/05/13 08:03:05;;;;;;;;;;;27.50;36.90;;;;;;5109058;28;1835;-44
2022/05/13 08:05:33;;;;;;;;;;;27.50;37.00;;;;;;5109237;28;988;-45
2022/05/13 08:08:04;;;;;;;;;;;27.60;36.90;;;;;;5116834;28;1013;-44
2022/05/13 08:10:31;;;;;;;;;;;27.50;36.80;;;;;;5113392;28;1974;-45
2022/05/13 08:12:58;;;;;;;;;;;27.50;36.80;;;;;;5116266;28;1016;-45
2022/05/13 08:15:25;;;;;;;;;;;27.50;36.80;;;;;;5116068;28;1052;-45
2022/05/13 08:17:54;;;;;;;;;;;27.50;36.80;;;;;;5114513;28;1008;-44
2022/05/13 08:20:21;;;;;;;;;;;27.50;36.90;;;;;;5115576;28;1011;-41
2022/05/13 08:22:48;;;;;;;;;;;27.50;36.90;;;;;;5114539;28;1008;-40
2022/05/13 08:25:15;;;;;;;;;;;27.50;36.90;;;;;;5114661;28;891;-40
2022/05/13 08:27:42;;;;;;;;;;;27.50;36.90;;;;;;5114890;28;1033;-40
2022/05/13 08:30:10;;;;;;;;;;;27.50;37.00;;;;;;5114620;28;2275;-40
2022/05/13 08:32:37;;;;;;;;;;;27.50;37.00;;;;;;5106890;28;1258;-39
2022/05/13 08:35:05;;;;;;;;;;;27.50;37.00;;;;;;5113728;28;1984;-40
2022/05/13 08:37:32;;;;;;;;;;;27.50;37.10;;;;;;5119949;28;960;-40
2022/05/13 08:40:01;;;;;;;;;;;27.50;37.00;;;;;;5119263;28;682;-41
2022/05/13 08:42:36;;;;;;;;;;;27.50;37.10;;;;;;5119000;28;1015;-40
2022/05/13 08:45:03;;;;;;;;;;;27.50;37.00;;;;;;5118793;28;1016;-40
2022/05/13 08:47:32;;;;;;;;;;;27.50;37.00;;;;;;5119023;28;1024;-40
2022/05/13 08:50:03;;;;;;;;;;;27.60;37.10;;;;;;5110070;28;1541;-40
2022/05/13 08:55:23;;;;;;;;;;;27.50;37.00;;;;;;5097165;28;1979;-42
2022/05/13 08:57:51;;;;;;;;;;;27.50;36.80;;;;;;5097422;28;1330;-43
2022/05/13 09:00:23;;;;;;;;;;;27.60;37.00;;;;;;5097701;28;1126;-44
2022/05/13 09:02:51;;;;;;;;;;;27.60;37.00;;;;;;5097664;28;984;-39
2022/05/13 09:05:23;;;;;;;;;;;27.60;37.00;;;;;;5097565;28;1032;-40
2022/05/13 09:07:51;;;;;;;;;;;27.60;36.90;;;;;;5097382;28;1000;-40
2022/05/13 09:10:19;;;;;;;;;;;27.60;37.00;;;;;;5097452;28;968;-40
2022/05/13 09:12:50;;;;;;;;;;;27.60;36.80;;;;;;5097815;28;964;-43
2022/05/13 09:15:19;;;;;;;;;;;27.60;36.90;;;;;;5097219;28;1910;-43
2022/05/13 09:17:51;;;;;;;;;;;27.60;37.00;;;;;;5097685;28;1118;-40
2022/05/13 09:20:20;;;;;;;;;;;27.60;37.00;;;;;;5097776;28;961;-43
2022/05/13 09:22:49;;;;;;;;;;;27.60;37.00;;;;;;5097847;28;1126;-43
2022/05/13 09:25:18;;;;;;;;;;;27.60;36.90;;;;;;5098185;28;991;-40
2022/05/13 09:27:46;;;;;;;;;;;27.60;37.00;;;;;;5097928;28;937;-41
2022/05/13 09:30:17;;;;;;;;;;;27.60;37.00;;;;;;5096875;28;1764;-41
2022/05/13 09:32:44;;;;;;;;;;;27.60;37.00;;;;;;5098004;28;1173;-41
2022/05/13 09:35:15;;;;;;;;;;;27.60;37.00;;;;;;5097636;28;1906;-42
2022/05/13 09:37:43;;;;;;;;;;;27.60;37.00;;;;;;5098526;28;1468;-40
2022/05/13 09:40:11;;;;;;;;;;;27.60;37.00;;;;;;5116943;28;1627;-39
2022/05/13 09:42:40;;;;;;;;;;;27.60;37.00;;;;;;5118188;28;985;-41
2022/05/13 09:45:14;;;;;;;;;;;27.60;37.00;;;;;;5117362;28;933;-40
2022/05/13 09:47:41;;;;;;;;;;;27.60;37.00;;;;;;5117367;28;1134;-40
2022/05/13 09:50:16;;;;;;;;;;;27.60;37.10;;;;;;5116473;28;960;-40
2022/05/13 09:52:43;;;;;;;;;;;27.60;37.00;;;;;;5115601;28;977;-40
2022/05/13 09:55:14;;;;;;;;;;;27.60;37.00;;;;;;5114500;28;1969;-42
2022/05/13 09:57:42;;;;;;;;;;;27.60;37.00;;;;;;5114533;28;966;-42
2022/05/13 10:00:15;;;;;;;;;;;27.60;36.90;;;;;;5114001;28;845;-41
2022/05/13 10:02:42;;;;;;;;;;;27.50;37.00;;;;;;5115440;28;965;-41
2022/05/13 10:05:14;;;;;;;;;;;27.60;37.00;;;;;;5115454;28;1046;-40
2022/05/13 10:07:43;;;;;;;;;;;27.60;37.00;;;;;;5114750;28;892;-41
2022/05/13 10:15:50;;;;;;;;;;;27.60;36.80;;;;;;5115408;28;1972;-41
2022/05/13 10:18:20;;;;;;;;;;;27.60;36.90;;;;;;5114704;28;986;-40
2022/05/13 10:20:49;;;;;;;;;;;27.60;37.00;;;;;;5114477;28;988;-40
2022/05/13 10:23:18;;;;;;;;;;;27.60;36.90;;;;;;5114840;28;1000;-40
2022/05/13 10:25:49;;;;;;;;;;;27.60;37.10;;;;;;5114111;28;927;-40
2022/05/13 10:28:19;;;;;;;;;;;27.60;37.10;;;;;;5114980;28;1027;-40
2022/05/13 10:30:47;;;;;;;;;;;27.60;37.10;;;;;;5113755;28;933;-40
2022/05/13 10:33:19;;;;;;;;;;;27.60;37.20;;;;;;5115294;28;1105;-40
2022/05/13 10:35:49;;;;;;;;;;;27.60;37.10;;;;;;5115517;28;1973;-39
2022/05/13 10:38:18;;;;;;;;;;;27.60;37.20;;;;;;5115044;28;969;-41
2022/05/13 10:40:47;;;;;;;;;;;27.60;37.10;;;;;;5114029;28;983;-40
2022/05/13 10:43:16;;;;;;;;;;;27.60;37.00;;;;;;5114120;28;1027;-39
2022/05/13 10:45:44;;;;;;;;;;;27.60;37.00;;;;;;5114110;28;952;-42
2022/05/13 10:48:16;;;;;;;;;;;27.60;37.10;;;;;;5112896;28;944;-39
2022/05/13 10:50:48;;;;;;;;;;;27.60;37.00;;;;;;5111025;28;937;-41
2022/05/13 10:53:19;;;;;;;;;;;27.70;37.10;;;;;;5112257;28;1027;-40
2022/05/13 10:55:51;;;;;;;;;;;27.70;37.10;;;;;;5112334;28;1906;-39
2022/05/13 10:58:29;;;;;;;;;;;27.60;37.10;;;;;;5112635;28;1023;-40
2022/05/13 11:01:00;;;;;;;;;;;27.70;37.10;;;;;;5113091;28;936;-38
2022/05/13 11:03:38;;;;;;;;;;;27.70;37.10;;;;;;5112521;28;983;-39
2022/05/13 11:06:14;;;;;;;;;;;27.70;37.00;;;;;;5114654;28;1007;-38
2022/05/13 11:08:48;;;;;;;;;;;27.70;36.90;;;;;;5113597;28;1019;-42
2022/05/13 11:11:22;;;;;;;;;;;27.70;37.00;;;;;;5114880;28;925;-38
2022/05/13 11:13:53;;;;;;;;;;;27.70;36.90;;;;;;5114955;28;888;-38
2022/05/13 11:16:30;;;;;;;;;;;27.70;37.10;;;;;;5113540;28;952;-39
2022/05/13 11:22:14;;;;;;;;;;;27.70;37.10;;;;;;5020559;28;922;-41
2022/05/13 11:27:38;;;;;;;;;;;27.70;37.00;;;;;;5069027;28;1121;-38
2022/05/13 11:30:08;;;;;;;;;;;27.70;37.00;;;;;;5113859;28;948;-39
2022/05/13 11:32:41;;;;;;;;;;;27.70;37.10;;;;;;5114825;28;1035;-39
2022/05/13 11:35:16;;;;;;;;;;;27.70;37.10;;;;;;5114241;28;1905;-44
2022/05/13 11:37:44;;;;;;;;;;;27.70;36.90;;;;;;5113732;28;959;-41
2022/05/13 11:40:15;;;;;;;;;;;27.70;36.90;;;;;;5112993;28;1031;-41
2022/05/13 11:45:36;;;;;;;;;;;27.70;36.90;;;;;;5099093;28;1408;-41
2022/05/13 11:48:12;;;;;;;;;;;27.70;36.80;;;;;;5110982;28;977;-38
2022/05/13 11:50:39;;;;;;;;;;;27.70;36.90;;;;;;5111220;28;892;-38
2022/05/13 11:53:06;;;;;;;;;;;27.70;36.80;;;;;;5111079;28;1000;-40
2022/05/13 11:55:51;;;;;;;;;;;27.70;36.90;;;;;;5111770;28;1972;-41
2022/05/13 11:58:42;;;;;;;;;;;27.70;37.00;;;;;;5111785;28;1117;-37
2022/05/13 12:01:10;;;;;;;;;;;27.70;36.90;;;;;;5112445;28;1873;-37
2022/05/13 12:03:38;;;;;;;;;;;27.80;36.90;;;;;;5112068;28;991;-39
2022/05/13 12:06:07;;;;;;;;;;;27.80;36.80;;;;;;5115061;28;865;-38
2022/05/13 12:08:40;;;;;;;;;;;27.80;37.10;;;;;;5115966;28;1006;-37
2022/05/13 12:11:20;;;;;;;;;;;27.80;36.70;;;;;;5117609;28;877;-39
2022/05/13 12:13:53;;;;;;;;;;;27.80;37.90;;;;;;5115552;28;984;-38
2022/05/13 12:16:33;;;;;;;;;;;27.80;36.80;;;;;;5115464;28;1981;-38
2022/05/13 12:19:13;;;;;;;;;;;27.80;36.70;;;;;;5116457;28;1057;-40
2022/05/13 12:21:43;;;;;;;;;;;27.80;36.80;;;;;;5116221;28;992;-38
2022/05/13 12:24:18;;;;;;;;;;;27.80;36.80;;;;;;5115134;28;873;-39
2022/05/13 12:27:07;;;;;;;;;;;27.80;36.70;;;;;;5115997;28;992;-37
2022/05/13 12:29:45;;;;;;;;;;;27.80;36.70;;;;;;5117877;28;989;-40
2022/05/13 12:32:20;;;;;;;;;;;27.80;36.90;;;;;;5118321;28;984;-38
2022/05/13 12:37:43;;;;;;;;;;;27.80;36.80;;;;;;5117227;28;897;-40
2022/05/13 12:40:17;;;;;;;;;;;27.80;36.70;;;;;;5117348;28;953;-38
2022/05/13 12:42:50;;;;;;;;;;;27.80;36.80;;;;;;5117825;28;1010;-38
2022/05/13 12:45:21;;;;;;;;;;;27.80;36.80;;;;;;5118754;28;945;-41
2022/05/13 12:47:58;;;;;;;;;;;27.80;36.80;;;;;;5118375;28;937;-39
2022/05/13 12:56:43;;;;;;;;;;;27.80;36.80;;;;;;5115674;28;2013;-40
2022/05/13 12:59:12;;;;;;;;;;;27.80;36.70;;;;;;5116518;28;1789;-37
2022/05/13 13:01:41;;;;;;;;;;;27.80;36.80;;;;;;5115784;28;1758;-40
2022/05/13 13:04:09;;;;;;;;;;;27.90;36.80;;;;;;5116276;28;937;-40
2022/05/13 13:06:39;;;;;;;;;;;27.90;36.80;;;;;;5115731;28;1024;-41
2022/05/13 13:09:07;;;;;;;;;;;27.90;36.70;;;;;;5114530;28;1027;-38
2022/05/13 13:11:36;;;;;;;;;;;27.90;36.70;;;;;;5116497;28;902;-38
2022/05/13 13:14:12;;;;;;;;;;;27.90;36.80;;;;;;5115757;28;1008;-39
2022/05/13 13:16:42;;;;;;;;;;;27.90;36.80;;;;;;5113864;28;1918;-38
2022/05/13 13:19:10;;;;;;;;;;;27.80;36.80;;;;;;5114738;28;935;-39
2022/05/13 13:21:38;;;;;;;;;;;27.80;36.90;;;;;;5114753;28;870;-40
2022/05/13 13:24:07;;;;;;;;;;;27.80;37.00;;;;;;5114596;28;1866;-38
2022/05/13 13:26:35;;;;;;;;;;;27.80;36.90;;;;;;5115901;28;870;-38
2022/05/13 13:29:02;;;;;;;;;;;27.80;37.00;;;;;;5114565;28;967;-39
2022/05/13 13:31:33;;;;;;;;;;;27.80;37.00;;;;;;5115356;28;1535;-39
2022/05/13 13:34:00;;;;;;;;;;;27.80;37.00;;;;;;5114571;28;916;-40
2022/05/13 13:36:28;;;;;;;;;;;27.80;37.00;;;;;;5113946;28;1957;-38
2022/05/13 13:38:55;;;;;;;;;;;27.90;37.00;;;;;;5113927;28;996;-39
2022/05/13 13:41:23;;;;;;;;;;;27.80;37.00;;;;;;5114916;28;888;-39
2022/05/13 13:43:53;;;;;;;;;;;27.80;37.00;;;;;;5113498;28;934;-38
2022/05/13 13:46:22;;;;;;;;;;;27.90;37.00;;;;;;5114909;28;1015;-38
2022/05/13 13:48:51;;;;;;;;;;;27.90;37.00;;;;;;5114037;28;970;-40
2022/05/13 13:51:20;;;;;;;;;;;27.80;37.10;;;;;;5115160;28;1007;-37
2022/05/13 13:53:53;;;;;;;;;;;27.90;37.00;;;;;;5115193;28;1056;-39
2022/05/13 13:56:20;;;;;;;;;;;27.90;37.00;;;;;;5114930;28;1990;-38
2022/05/13 13:58:54;;;;;;;;;;;27.90;37.00;;;;;;5112985;28;1236;-38
2022/05/13 14:01:22;;;;;;;;;;;27.90;37.00;;;;;;5113828;28;1051;-40
2022/05/13 14:04:03;;;;;;;;;;;28.00;37.00;;;;;;5114353;28;972;-38
2022/05/13 14:06:29;;;;;;;;;;;28.00;36.90;;;;;;5114314;28;1007;-38
2022/05/13 14:08:56;;;;;;;;;;;28.00;36.90;;;;;;5112136;28;948;-38
2022/05/13 14:11:25;;;;;;;;;;;28.10;36.90;;;;;;5113951;28;933;-38
2022/05/13 14:13:53;;;;;;;;;;;28.10;36.90;;;;;;5113268;28;1027;-38
2022/05/13 14:16:21;;;;;;;;;;;28.10;38.00;;;;;;5113589;28;1926;-39
2022/05/13 14:18:48;;;;;;;;;;;28.10;36.80;;;;;;5113583;28;956;-40
2022/05/13 14:21:24;;;;;;;;;;;28.10;36.90;;;;;;5112411;28;1019;-39
2022/05/13 14:23:56;;;;;;;;;;;28.20;36.80;;;;;;5113359;28;991;-41
2022/05/13 14:26:24;;;;;;;;;;;28.20;36.70;;;;;;5113155;28;960;-38
2022/05/13 14:28:53;;;;;;;;;;;28.20;36.70;;;;;;5113836;28;994;-38
2022/05/13 14:31:21;;;;;;;;;;;28.20;36.60;;;;;;5113056;28;1031;-40
2022/05/13 14:33:49;;;;;;;;;;;28.20;36.60;;;;;;5113300;28;949;-40
2022/05/13 14:36:17;;;;;;;;;;;28.10;36.70;;;;;;5114277;28;1906;-41
2022/05/13 14:41:34;;;;;;;;;;;28.20;36.90;;;;;;5113219;28;846;-39
2022/05/13 14:44:02;;;;;;;;;;;28.20;36.90;;;;;;5112788;28;1007;-38
2022/05/13 14:46:30;;;;;;;;;;;28.20;36.90;;;;;;5112426;28;941;-39
2022/05/13 14:48:57;;;;;;;;;;;28.20;36.90;;;;;;5113005;28;1444;-37
2022/05/13 14:51:27;;;;;;;;;;;28.30;36.80;;;;;;5114094;28;1007;-39
2022/05/13 14:53:56;;;;;;;;;;;28.30;36.80;;;;;;5113261;28;1647;-41
2022/05/13 14:56:24;;;;;;;;;;;28.40;36.80;;;;;;5113341;28;1918;-38
2022/05/13 14:58:53;;;;;;;;;;;28.40;36.80;;;;;;5113518;28;1220;-42
2022/05/13 15:01:21;;;;;;;;;;;28.50;36.70;;;;;;5113103;28;933;-40
2022/05/13 15:03:49;;;;;;;;;;;28.50;36.60;;;;;;5113858;28;1050;-39
2022/05/13 15:06:21;;;;;;;;;;;28.50;36.70;;;;;;5113503;28;979;-38
2022/05/13 15:08:50;;;;;;;;;;;28.50;36.60;;;;;;5113178;28;984;-39
2022/05/13 15:11:19;;;;;;;;;;;28.60;36.70;;;;;;5112811;28;980;-37
2022/05/13 15:13:46;;;;;;;;;;;28.70;36.70;;;;;;5113490;28;1000;-40
2022/05/13 15:16:13;;;;;;;;;;;28.60;36.50;;;;;;5112659;28;1975;-38
2022/05/13 15:18:41;;;;;;;;;;;28.70;36.50;;;;;;5112231;28;912;-39
2022/05/13 15:21:08;;;;;;;;;;;28.80;36.70;;;;;;5112442;28;1016;-38
2022/05/13 15:23:35;;;;;;;;;;;28.80;36.40;;;;;;5112656;28;1016;-38
2022/05/13 15:26:04;;;;;;;;;;;28.80;36.50;;;;;;5112609;28;984;-38
2022/05/13 15:28:31;;;;;;;;;;;28.80;36.50;;;;;;5112863;28;1026;-40
2022/05/13 15:30:58;;;;;;;;;;;28.80;36.40;;;;;;5111822;28;868;-38